sensor_id;sensor_type;location;lat;lon;timestamp;P1;durP1;ratioP1;P2;durP2;ratioP2
71671;SDS011;67659;45.554;11.812;2023-04-25T00:00:07;5.03;;;1.47;;
71671;SDS011;67659;45.554;11.812;2023-04-25T00:02:34;4.75;;;1.42;;
71671;SDS011;67659;45.554;11.812;2023-04-25T00:05:00;2.92;;;1.10;;
71671;SDS011;67659;45.554;11.812;2023-04-25T00:07:27;2.97;;;1.20;;
71671;SDS011;67659;45.554;11.812;2023-04-25T00:09:53;3.88;;;1.40;;
71671;SDS011;67659;45.554;11.812;2023-04-25T00:12:18;3.33;;;1.25;;
71671;SDS011;67659;45.554;11.812;2023-04-25T00:14:45;3.85;;;1.40;;
71671;SDS011;67659;45.554;11.812;2023-04-25T00:17:11;3.20;;;1.20;;
71671;SDS011;67659;45.554;11.812;2023-04-25T00:19:37;2.88;;;1.33;;
71671;SDS011;67659;45.554;11.812;2023-04-25T00:22:03;3.85;;;1.30;;
71671;SDS011;67659;45.554;11.812;2023-04-25T00:24:30;4.77;;;1.40;;
71671;SDS011;67659;45.554;11.812;2023-04-25T00:26:56;4.68;;;1.38;;
71671;SDS011;67659;45.554;11.812;2023-04-25T00:29:22;3.45;;;1.27;;
71671;SDS011;67659;45.554;11.812;2023-04-25T00:31:47;4.00;;;1.27;;
71671;SDS011;67659;45.554;11.812;2023-04-25T00:34:13;3.15;;;1.30;;
71671;SDS011;67659;45.554;11.812;2023-04-25T00:36:39;3.20;;;1.20;;
71671;SDS011;67659;45.554;11.812;2023-04-25T00:39:05;3.22;;;1.40;;
71671;SDS011;67659;45.554;11.812;2023-04-25T00:41:31;3.40;;;1.30;;
71671;SDS011;67659;45.554;11.812;2023-04-25T00:43:58;3.67;;;1.30;;
71671;SDS011;67659;45.554;11.812;2023-04-25T00:46:25;4.55;;;1.40;;
71671;SDS011;67659;45.554;11.812;2023-04-25T00:48:52;3.30;;;1.30;;
71671;SDS011;67659;45.554;11.812;2023-04-25T00:51:19;3.03;;;1.20;;
71671;SDS011;67659;45.554;11.812;2023-04-25T00:53:46;4.38;;;1.30;;
71671;SDS011;67659;45.554;11.812;2023-04-25T00:56:13;3.50;;;1.30;;
71671;SDS011;67659;45.554;11.812;2023-04-25T00:58:40;2.97;;;1.20;;
71671;SDS011;67659;45.554;11.812;2023-04-25T01:01:08;3.53;;;1.17;;
71671;SDS011;67659;45.554;11.812;2023-04-25T01:03:34;3.93;;;1.30;;
71671;SDS011;67659;45.554;11.812;2023-04-25T01:06:09;3.75;;;1.42;;
71671;SDS011;67659;45.554;11.812;2023-04-25T01:08:36;3.45;;;1.40;;
71671;SDS011;67659;45.554;11.812;2023-04-25T01:11:03;4.40;;;1.33;;
71671;SDS011;67659;45.554;11.812;2023-04-25T01:13:30;3.47;;;1.20;;
71671;SDS011;67659;45.554;11.812;2023-04-25T01:15:57;4.13;;;1.30;;
71671;SDS011;67659;45.554;11.812;2023-04-25T01:18:24;2.85;;;1.20;;
71671;SDS011;67659;45.554;11.812;2023-04-25T01:20:50;3.58;;;1.35;;
71671;SDS011;67659;45.554;11.812;2023-04-25T01:23:18;2.92;;;1.20;;
71671;SDS011;67659;45.554;11.812;2023-04-25T01:25:45;4.15;;;1.23;;
71671;SDS011;67659;45.554;11.812;2023-04-25T01:28:11;2.93;;;1.17;;
71671;SDS011;67659;45.554;11.812;2023-04-25T01:30:38;3.72;;;1.40;;
71671;SDS011;67659;45.554;11.812;2023-04-25T01:33:04;3.53;;;1.25;;
71671;SDS011;67659;45.554;11.812;2023-04-25T01:35:32;3.08;;;1.15;;
71671;SDS011;67659;45.554;11.812;2023-04-25T01:37:58;4.17;;;1.67;;
71671;SDS011;67659;45.554;11.812;2023-04-25T01:40:24;4.40;;;1.50;;
71671;SDS011;67659;45.554;11.812;2023-04-25T01:42:51;5.13;;;1.33;;
71671;SDS011;67659;45.554;11.812;2023-04-25T01:45:17;3.55;;;1.30;;
71671;SDS011;67659;45.554;11.812;2023-04-25T01:47:43;3.22;;;1.13;;
71671;SDS011;67659;45.554;11.812;2023-04-25T01:50:14;4.70;;;1.30;;
71671;SDS011;67659;45.554;11.812;2023-04-25T01:52:41;4.70;;;1.48;;
71671;SDS011;67659;45.554;11.812;2023-04-25T01:55:07;3.97;;;1.50;;
71671;SDS011;67659;45.554;11.812;2023-04-25T01:57:33;5.30;;;1.42;;
71671;SDS011;67659;45.554;11.812;2023-04-25T02:00:00;5.07;;;1.53;;
71671;SDS011;67659;45.554;11.812;2023-04-25T02:02:28;5.45;;;1.60;;
71671;SDS011;67659;45.554;11.812;2023-04-25T02:04:54;3.72;;;1.27;;
71671;SDS011;67659;45.554;11.812;2023-04-25T02:07:21;4.72;;;1.40;;
71671;SDS011;67659;45.554;11.812;2023-04-25T02:09:47;5.00;;;1.50;;
71671;SDS011;67659;45.554;11.812;2023-04-25T02:12:13;4.70;;;1.70;;
71671;SDS011;67659;45.554;11.812;2023-04-25T02:14:39;3.78;;;1.17;;
71671;SDS011;67659;45.554;11.812;2023-04-25T02:17:05;3.83;;;1.40;;
71671;SDS011;67659;45.554;11.812;2023-04-25T02:19:31;4.47;;;1.17;;
71671;SDS011;67659;45.554;11.812;2023-04-25T02:21:57;3.80;;;1.30;;
71671;SDS011;67659;45.554;11.812;2023-04-25T02:24:23;4.20;;;1.30;;
71671;SDS011;67659;45.554;11.812;2023-04-25T02:26:49;3.55;;;1.38;;
71671;SDS011;67659;45.554;11.812;2023-04-25T02:29:15;5.33;;;1.40;;
71671;SDS011;67659;45.554;11.812;2023-04-25T02:31:41;4.18;;;1.38;;
71671;SDS011;67659;45.554;11.812;2023-04-25T02:34:07;4.60;;;1.50;;
71671;SDS011;67659;45.554;11.812;2023-04-25T02:36:33;3.88;;;1.50;;
71671;SDS011;67659;45.554;11.812;2023-04-25T02:39:00;3.80;;;1.40;;
71671;SDS011;67659;45.554;11.812;2023-04-25T02:41:27;3.07;;;1.30;;
71671;SDS011;67659;45.554;11.812;2023-04-25T02:43:54;3.92;;;1.30;;
71671;SDS011;67659;45.554;11.812;2023-04-25T02:46:20;4.22;;;1.30;;
71671;SDS011;67659;45.554;11.812;2023-04-25T02:48:46;4.43;;;1.23;;
71671;SDS011;67659;45.554;11.812;2023-04-25T02:51:12;5.07;;;1.40;;
71671;SDS011;67659;45.554;11.812;2023-04-25T02:53:38;3.40;;;1.20;;
71671;SDS011;67659;45.554;11.812;2023-04-25T02:56:03;4.35;;;1.50;;
71671;SDS011;67659;45.554;11.812;2023-04-25T02:58:30;4.50;;;1.40;;
71671;SDS011;67659;45.554;11.812;2023-04-25T03:00:56;4.03;;;1.40;;
71671;SDS011;67659;45.554;11.812;2023-04-25T03:03:21;4.57;;;1.40;;
71671;SDS011;67659;45.554;11.812;2023-04-25T03:05:48;3.70;;;1.23;;
71671;SDS011;67659;45.554;11.812;2023-04-25T03:08:15;3.95;;;1.27;;
71671;SDS011;67659;45.554;11.812;2023-04-25T03:10:41;5.10;;;1.40;;
71671;SDS011;67659;45.554;11.812;2023-04-25T03:13:07;3.70;;;1.35;;
71671;SDS011;67659;45.554;11.812;2023-04-25T03:15:34;4.47;;;1.38;;
71671;SDS011;67659;45.554;11.812;2023-04-25T03:18:00;3.72;;;1.40;;
71671;SDS011;67659;45.554;11.812;2023-04-25T03:20:26;4.07;;;1.30;;
71671;SDS011;67659;45.554;11.812;2023-04-25T03:22:52;3.63;;;1.45;;
71671;SDS011;67659;45.554;11.812;2023-04-25T03:25:18;3.75;;;1.35;;
71671;SDS011;67659;45.554;11.812;2023-04-25T03:27:44;3.20;;;1.40;;
71671;SDS011;67659;45.554;11.812;2023-04-25T03:30:10;4.93;;;1.40;;
71671;SDS011;67659;45.554;11.812;2023-04-25T03:32:36;3.95;;;1.30;;
71671;SDS011;67659;45.554;11.812;2023-04-25T03:35:02;5.15;;;1.30;;
71671;SDS011;67659;45.554;11.812;2023-04-25T03:37:28;3.33;;;1.27;;
71671;SDS011;67659;45.554;11.812;2023-04-25T03:39:55;3.80;;;1.13;;
71671;SDS011;67659;45.554;11.812;2023-04-25T03:42:20;3.72;;;1.23;;
71671;SDS011;67659;45.554;11.812;2023-04-25T03:44:48;2.58;;;1.13;;
71671;SDS011;67659;45.554;11.812;2023-04-25T03:47:15;3.63;;;1.30;;
71671;SDS011;67659;45.554;11.812;2023-04-25T03:49:41;4.17;;;1.20;;
71671;SDS011;67659;45.554;11.812;2023-04-25T03:52:07;2.72;;;1.20;;
71671;SDS011;67659;45.554;11.812;2023-04-25T03:54:33;4.05;;;1.42;;
71671;SDS011;67659;45.554;11.812;2023-04-25T03:56:59;3.78;;;1.20;;
71671;SDS011;67659;45.554;11.812;2023-04-25T03:59:25;3.73;;;1.27;;
71671;SDS011;67659;45.554;11.812;2023-04-25T04:01:51;3.58;;;1.40;;
71671;SDS011;67659;45.554;11.812;2023-04-25T04:04:17;2.63;;;1.10;;
71671;SDS011;67659;45.554;11.812;2023-04-25T04:06:43;4.28;;;1.30;;
71671;SDS011;67659;45.554;11.812;2023-04-25T04:09:09;3.80;;;1.43;;
71671;SDS011;67659;45.554;11.812;2023-04-25T04:11:37;2.78;;;1.10;;
71671;SDS011;67659;45.554;11.812;2023-04-25T04:14:05;4.03;;;1.25;;
71671;SDS011;67659;45.554;11.812;2023-04-25T04:16:32;3.08;;;1.00;;
71671;SDS011;67659;45.554;11.812;2023-04-25T04:18:58;4.35;;;1.20;;
71671;SDS011;67659;45.554;11.812;2023-04-25T04:21:24;3.57;;;1.20;;
71671;SDS011;67659;45.554;11.812;2023-04-25T04:23:51;3.05;;;1.20;;
71671;SDS011;67659;45.554;11.812;2023-04-25T04:26:17;3.90;;;1.17;;
71671;SDS011;67659;45.554;11.812;2023-04-25T04:28:43;5.60;;;1.30;;
71671;SDS011;67659;45.554;11.812;2023-04-25T04:31:09;3.83;;;1.30;;
71671;SDS011;67659;45.554;11.812;2023-04-25T04:33:36;3.17;;;1.30;;
71671;SDS011;67659;45.554;11.812;2023-04-25T04:36:02;4.03;;;1.30;;
71671;SDS011;67659;45.554;11.812;2023-04-25T04:38:29;2.60;;;1.10;;
71671;SDS011;67659;45.554;11.812;2023-04-25T04:40:55;3.47;;;1.17;;
71671;SDS011;67659;45.554;11.812;2023-04-25T04:43:21;4.15;;;1.30;;
71671;SDS011;67659;45.554;11.812;2023-04-25T04:45:48;2.80;;;1.17;;
71671;SDS011;67659;45.554;11.812;2023-04-25T04:48:15;3.97;;;1.00;;
71671;SDS011;67659;45.554;11.812;2023-04-25T04:50:42;3.15;;;1.20;;
71671;SDS011;67659;45.554;11.812;2023-04-25T04:53:10;3.87;;;1.30;;
71671;SDS011;67659;45.554;11.812;2023-04-25T04:55:37;3.85;;;1.30;;
71671;SDS011;67659;45.554;11.812;2023-04-25T04:58:02;4.25;;;1.42;;
71671;SDS011;67659;45.554;11.812;2023-04-25T05:00:28;5.15;;;1.20;;
71671;SDS011;67659;45.554;11.812;2023-04-25T05:02:55;2.80;;;1.10;;
71671;SDS011;67659;45.554;11.812;2023-04-25T05:05:21;4.90;;;1.30;;
71671;SDS011;67659;45.554;11.812;2023-04-25T05:07:47;5.32;;;1.30;;
71671;SDS011;67659;45.554;11.812;2023-04-25T05:10:13;4.10;;;1.23;;
71671;SDS011;67659;45.554;11.812;2023-04-25T05:12:38;4.17;;;1.20;;
71671;SDS011;67659;45.554;11.812;2023-04-25T05:15:04;2.75;;;1.20;;
71671;SDS011;67659;45.554;11.812;2023-04-25T05:17:31;3.83;;;1.10;;
71671;SDS011;67659;45.554;11.812;2023-04-25T05:19:57;2.72;;;1.15;;
71671;SDS011;67659;45.554;11.812;2023-04-25T05:22:23;3.83;;;1.17;;
71671;SDS011;67659;45.554;11.812;2023-04-25T05:24:49;3.88;;;1.30;;
71671;SDS011;67659;45.554;11.812;2023-04-25T05:27:17;4.85;;;1.38;;
71671;SDS011;67659;45.554;11.812;2023-04-25T05:29:43;4.78;;;1.30;;
71671;SDS011;67659;45.554;11.812;2023-04-25T05:32:09;3.20;;;1.10;;
71671;SDS011;67659;45.554;11.812;2023-04-25T05:34:36;4.13;;;1.30;;
71671;SDS011;67659;45.554;11.812;2023-04-25T05:37:02;4.10;;;1.17;;
71671;SDS011;67659;45.554;11.812;2023-04-25T05:39:28;4.05;;;1.20;;
71671;SDS011;67659;45.554;11.812;2023-04-25T05:41:54;4.30;;;1.30;;
71671;SDS011;67659;45.554;11.812;2023-04-25T05:44:20;3.80;;;1.10;;
71671;SDS011;67659;45.554;11.812;2023-04-25T05:46:46;3.15;;;1.20;;
71671;SDS011;67659;45.554;11.812;2023-04-25T05:49:12;3.63;;;1.10;;
71671;SDS011;67659;45.554;11.812;2023-04-25T05:51:38;2.53;;;1.00;;
71671;SDS011;67659;45.554;11.812;2023-04-25T05:54:04;3.17;;;1.30;;
71671;SDS011;67659;45.554;11.812;2023-04-25T05:56:29;5.13;;;1.30;;
71671;SDS011;67659;45.554;11.812;2023-04-25T05:58:55;4.10;;;1.13;;
71671;SDS011;67659;45.554;11.812;2023-04-25T06:01:22;3.47;;;1.20;;
71671;SDS011;67659;45.554;11.812;2023-04-25T06:03:48;3.55;;;1.20;;
71671;SDS011;67659;45.554;11.812;2023-04-25T06:06:14;4.13;;;1.27;;
71671;SDS011;67659;45.554;11.812;2023-04-25T06:08:40;4.88;;;1.30;;
71671;SDS011;67659;45.554;11.812;2023-04-25T06:11:06;3.30;;;1.13;;
71671;SDS011;67659;45.554;11.812;2023-04-25T06:13:32;5.65;;;1.27;;
71671;SDS011;67659;45.554;11.812;2023-04-25T06:15:58;5.40;;;1.40;;
71671;SDS011;67659;45.554;11.812;2023-04-25T06:18:24;6.05;;;1.25;;
71671;SDS011;67659;45.554;11.812;2023-04-25T06:20:50;5.00;;;1.33;;
71671;SDS011;67659;45.554;11.812;2023-04-25T06:23:15;4.80;;;1.48;;
71671;SDS011;67659;45.554;11.812;2023-04-25T06:25:41;4.50;;;1.13;;
71671;SDS011;67659;45.554;11.812;2023-04-25T06:28:07;6.83;;;1.20;;
71671;SDS011;67659;45.554;11.812;2023-04-25T06:30:33;6.82;;;1.70;;
71671;SDS011;67659;45.554;11.812;2023-04-25T06:32:59;4.07;;;1.50;;
71671;SDS011;67659;45.554;11.812;2023-04-25T06:35:24;4.82;;;1.23;;
71671;SDS011;67659;45.554;11.812;2023-04-25T06:37:50;6.05;;;1.42;;
71671;SDS011;67659;45.554;11.812;2023-04-25T06:40:16;7.53;;;1.60;;
71671;SDS011;67659;45.554;11.812;2023-04-25T06:42:42;6.47;;;1.60;;
71671;SDS011;67659;45.554;11.812;2023-04-25T06:45:08;6.38;;;1.70;;
71671;SDS011;67659;45.554;11.812;2023-04-25T06:47:35;7.78;;;1.83;;
71671;SDS011;67659;45.554;11.812;2023-04-25T06:50:00;8.13;;;1.63;;
71671;SDS011;67659;45.554;11.812;2023-04-25T06:52:26;8.55;;;1.58;;
71671;SDS011;67659;45.554;11.812;2023-04-25T06:54:52;7.78;;;1.77;;
71671;SDS011;67659;45.554;11.812;2023-04-25T06:57:18;7.77;;;1.80;;
71671;SDS011;67659;45.554;11.812;2023-04-25T06:59:44;6.18;;;1.67;;
71671;SDS011;67659;45.554;11.812;2023-04-25T07:02:10;6.45;;;1.60;;
71671;SDS011;67659;45.554;11.812;2023-04-25T07:04:36;7.93;;;1.70;;
71671;SDS011;67659;45.554;11.812;2023-04-25T07:07:02;9.40;;;1.80;;
71671;SDS011;67659;45.554;11.812;2023-04-25T07:09:30;8.15;;;1.88;;
71671;SDS011;67659;45.554;11.812;2023-04-25T07:11:59;10.27;;;1.60;;
71671;SDS011;67659;45.554;11.812;2023-04-25T07:14:26;6.10;;;1.90;;
71671;SDS011;67659;45.554;11.812;2023-04-25T07:16:52;6.60;;;1.80;;
71671;SDS011;67659;45.554;11.812;2023-04-25T07:19:20;7.88;;;1.70;;
71671;SDS011;67659;45.554;11.812;2023-04-25T07:21:46;7.25;;;1.77;;
71671;SDS011;67659;45.554;11.812;2023-04-25T07:24:12;7.20;;;1.50;;
71671;SDS011;67659;45.554;11.812;2023-04-25T07:26:38;6.87;;;1.87;;
71671;SDS011;67659;45.554;11.812;2023-04-25T07:29:04;10.40;;;2.03;;
71671;SDS011;67659;45.554;11.812;2023-04-25T07:31:30;5.38;;;1.70;;
71671;SDS011;67659;45.554;11.812;2023-04-25T07:33:55;6.13;;;1.80;;
71671;SDS011;67659;45.554;11.812;2023-04-25T07:36:21;9.43;;;1.75;;
71671;SDS011;67659;45.554;11.812;2023-04-25T07:38:47;6.93;;;1.52;;
71671;SDS011;67659;45.554;11.812;2023-04-25T07:41:13;5.47;;;1.40;;
71671;SDS011;67659;45.554;11.812;2023-04-25T07:43:39;6.38;;;1.70;;
71671;SDS011;67659;45.554;11.812;2023-04-25T07:46:04;6.57;;;1.57;;
71671;SDS011;67659;45.554;11.812;2023-04-25T07:48:31;6.90;;;1.80;;
71671;SDS011;67659;45.554;11.812;2023-04-25T07:50:57;8.90;;;1.92;;
71671;SDS011;67659;45.554;11.812;2023-04-25T07:53:23;5.68;;;1.65;;
71671;SDS011;67659;45.554;11.812;2023-04-25T07:55:48;6.03;;;1.60;;
71671;SDS011;67659;45.554;11.812;2023-04-25T07:58:15;6.82;;;1.60;;
71671;SDS011;67659;45.554;11.812;2023-04-25T08:00:46;6.55;;;1.63;;
71671;SDS011;67659;45.554;11.812;2023-04-25T08:03:12;7.15;;;2.05;;
71671;SDS011;67659;45.554;11.812;2023-04-25T08:05:38;6.97;;;1.90;;
71671;SDS011;67659;45.554;11.812;2023-04-25T08:08:04;5.40;;;1.83;;
71671;SDS011;67659;45.554;11.812;2023-04-25T08:10:31;7.30;;;2.42;;
71671;SDS011;67659;45.554;11.812;2023-04-25T08:12:58;9.63;;;2.30;;
71671;SDS011;67659;45.554;11.812;2023-04-25T08:15:24;6.97;;;2.33;;
71671;SDS011;67659;45.554;11.812;2023-04-25T08:17:50;6.28;;;2.33;;
71671;SDS011;67659;45.554;11.812;2023-04-25T08:20:16;9.32;;;2.22;;
71671;SDS011;67659;45.554;11.812;2023-04-25T08:22:43;7.18;;;2.08;;
71671;SDS011;67659;45.554;11.812;2023-04-25T08:25:09;8.10;;;2.90;;
71671;SDS011;67659;45.554;11.812;2023-04-25T08:27:35;10.70;;;3.08;;
71671;SDS011;67659;45.554;11.812;2023-04-25T08:30:02;9.20;;;3.08;;
71671;SDS011;67659;45.554;11.812;2023-04-25T08:32:28;7.88;;;3.03;;
71671;SDS011;67659;45.554;11.812;2023-04-25T08:34:54;10.90;;;3.10;;
71671;SDS011;67659;45.554;11.812;2023-04-25T08:37:21;7.93;;;2.87;;
71671;SDS011;67659;45.554;11.812;2023-04-25T08:39:47;9.05;;;3.03;;
71671;SDS011;67659;45.554;11.812;2023-04-25T08:42:13;6.72;;;2.80;;
71671;SDS011;67659;45.554;11.812;2023-04-25T08:44:40;9.98;;;2.67;;
71671;SDS011;67659;45.554;11.812;2023-04-25T08:47:06;7.97;;;2.60;;
71671;SDS011;67659;45.554;11.812;2023-04-25T08:49:32;7.32;;;2.20;;
71671;SDS011;67659;45.554;11.812;2023-04-25T08:51:59;7.63;;;2.17;;
71671;SDS011;67659;45.554;11.812;2023-04-25T08:54:29;8.23;;;2.60;;
71671;SDS011;67659;45.554;11.812;2023-04-25T08:56:56;8.40;;;2.30;;
71671;SDS011;67659;45.554;11.812;2023-04-25T08:59:28;6.67;;;2.20;;
71671;SDS011;67659;45.554;11.812;2023-04-25T09:01:54;6.57;;;1.92;;
71671;SDS011;67659;45.554;11.812;2023-04-25T09:04:20;9.73;;;1.98;;
71671;SDS011;67659;45.554;11.812;2023-04-25T09:06:49;7.45;;;1.95;;
71671;SDS011;67659;45.554;11.812;2023-04-25T09:09:15;7.83;;;2.23;;
71671;SDS011;67659;45.554;11.812;2023-04-25T09:11:41;8.45;;;2.33;;
71671;SDS011;67659;45.554;11.812;2023-04-25T09:14:11;7.85;;;2.03;;
71671;SDS011;67659;45.554;11.812;2023-04-25T09:19:27;7.07;;;2.10;;
71671;SDS011;67659;45.554;11.812;2023-04-25T09:21:59;9.88;;;2.30;;
71671;SDS011;67659;45.554;11.812;2023-04-25T09:24:30;12.32;;;2.50;;
71671;SDS011;67659;45.554;11.812;2023-04-25T09:27:09;11.05;;;2.58;;
71671;SDS011;67659;45.554;11.812;2023-04-25T09:29:36;8.13;;;2.70;;
71671;SDS011;67659;45.554;11.812;2023-04-25T09:32:15;11.33;;;3.00;;
71671;SDS011;67659;45.554;11.812;2023-04-25T09:34:47;11.10;;;2.80;;
71671;SDS011;67659;45.554;11.812;2023-04-25T09:39:55;11.75;;;4.50;;
71671;SDS011;67659;45.554;11.812;2023-04-25T09:42:24;9.25;;;5.50;;
71671;SDS011;67659;45.554;11.812;2023-04-25T09:44:53;9.77;;;4.47;;
71671;SDS011;67659;45.554;11.812;2023-04-25T09:47:20;10.73;;;4.55;;
71671;SDS011;67659;45.554;11.812;2023-04-25T09:49:48;9.80;;;4.80;;
71671;SDS011;67659;45.554;11.812;2023-04-25T09:52:16;8.48;;;4.70;;
71671;SDS011;67659;45.554;11.812;2023-04-25T09:54:44;10.63;;;5.00;;
71671;SDS011;67659;45.554;11.812;2023-04-25T09:57:12;11.17;;;4.23;;
71671;SDS011;67659;45.554;11.812;2023-04-25T10:02:18;11.93;;;4.22;;
71671;SDS011;67659;45.554;11.812;2023-04-25T10:04:48;8.75;;;3.83;;
71671;SDS011;67659;45.554;11.812;2023-04-25T10:07:17;10.80;;;3.63;;
71671;SDS011;67659;45.554;11.812;2023-04-25T10:09:46;8.40;;;3.87;;
71671;SDS011;67659;45.554;11.812;2023-04-25T10:12:14;9.15;;;4.25;;
71671;SDS011;67659;45.554;11.812;2023-04-25T10:14:42;10.93;;;5.40;;
71671;SDS011;67659;45.554;11.812;2023-04-25T10:17:08;10.18;;;5.00;;
71671;SDS011;67659;45.554;11.812;2023-04-25T10:19:36;12.02;;;5.07;;
71671;SDS011;67659;45.554;11.812;2023-04-25T10:22:04;9.77;;;4.50;;
71671;SDS011;67659;45.554;11.812;2023-04-25T10:24:37;10.63;;;4.82;;
71671;SDS011;67659;45.554;11.812;2023-04-25T10:27:04;11.50;;;4.93;;
71671;SDS011;67659;45.554;11.812;2023-04-25T10:29:31;9.25;;;4.43;;
71671;SDS011;67659;45.554;11.812;2023-04-25T10:31:57;9.63;;;4.70;;
71671;SDS011;67659;45.554;11.812;2023-04-25T10:34:24;7.73;;;3.90;;
71671;SDS011;67659;45.554;11.812;2023-04-25T10:37:00;9.30;;;4.13;;
71671;SDS011;67659;45.554;11.812;2023-04-25T10:39:28;8.10;;;3.83;;
71671;SDS011;67659;45.554;11.812;2023-04-25T10:41:56;8.85;;;3.92;;
71671;SDS011;67659;45.554;11.812;2023-04-25T10:44:27;7.47;;;3.50;;
71671;SDS011;67659;45.554;11.812;2023-04-25T10:46:55;8.10;;;3.87;;
71671;SDS011;67659;45.554;11.812;2023-04-25T10:52:11;7.82;;;3.75;;
71671;SDS011;67659;45.554;11.812;2023-04-25T10:54:41;7.28;;;3.58;;
71671;SDS011;67659;45.554;11.812;2023-04-25T11:02:41;7.30;;;3.60;;
71671;SDS011;67659;45.554;11.812;2023-04-25T11:05:20;9.15;;;4.38;;
71671;SDS011;67659;45.554;11.812;2023-04-25T11:07:55;7.07;;;3.47;;
71671;SDS011;67659;45.554;11.812;2023-04-25T11:10:27;6.82;;;3.90;;
71671;SDS011;67659;45.554;11.812;2023-04-25T11:12:54;8.83;;;4.10;;
71671;SDS011;67659;45.554;11.812;2023-04-25T11:15:22;8.43;;;3.40;;
71671;SDS011;67659;45.554;11.812;2023-04-25T11:17:50;7.45;;;3.70;;
71671;SDS011;67659;45.554;11.812;2023-04-25T11:20:20;8.38;;;3.42;;
71671;SDS011;67659;45.554;11.812;2023-04-25T11:22:50;7.93;;;3.42;;
71671;SDS011;67659;45.554;11.812;2023-04-25T11:25:16;9.33;;;5.00;;
71671;SDS011;67659;45.554;11.812;2023-04-25T11:30:20;8.95;;;3.65;;
71671;SDS011;67659;45.554;11.812;2023-04-25T11:32:47;9.05;;;4.03;;
71671;SDS011;67659;45.554;11.812;2023-04-25T11:35:13;8.57;;;4.82;;
71671;SDS011;67659;45.554;11.812;2023-04-25T11:37:40;7.67;;;3.60;;
71671;SDS011;67659;45.554;11.812;2023-04-25T11:40:07;8.80;;;3.95;;
71671;SDS011;67659;45.554;11.812;2023-04-25T11:42:36;8.80;;;4.20;;
71671;SDS011;67659;45.554;11.812;2023-04-25T11:45:05;8.52;;;3.95;;
71671;SDS011;67659;45.554;11.812;2023-04-25T11:47:34;7.90;;;4.13;;
71671;SDS011;67659;45.554;11.812;2023-04-25T11:50:01;8.70;;;3.90;;
71671;SDS011;67659;45.554;11.812;2023-04-25T11:52:37;7.53;;;4.05;;
71671;SDS011;67659;45.554;11.812;2023-04-25T11:55:04;8.45;;;3.90;;
71671;SDS011;67659;45.554;11.812;2023-04-25T11:57:32;9.05;;;4.38;;
71671;SDS011;67659;45.554;11.812;2023-04-25T12:00:07;7.43;;;3.53;;
71671;SDS011;67659;45.554;11.812;2023-04-25T12:02:36;7.50;;;3.50;;
71671;SDS011;67659;45.554;11.812;2023-04-25T12:05:05;8.25;;;4.20;;
71671;SDS011;67659;45.554;11.812;2023-04-25T12:07:33;7.15;;;3.78;;
71671;SDS011;67659;45.554;11.812;2023-04-25T12:10:04;9.98;;;4.88;;
71671;SDS011;67659;45.554;11.812;2023-04-25T12:12:32;8.85;;;4.07;;
71671;SDS011;67659;45.554;11.812;2023-04-25T12:17:40;7.45;;;3.60;;
71671;SDS011;67659;45.554;11.812;2023-04-25T12:20:08;7.55;;;3.40;;
71671;SDS011;67659;45.554;11.812;2023-04-25T12:22:37;6.13;;;3.25;;
71671;SDS011;67659;45.554;11.812;2023-04-25T12:25:05;6.95;;;3.47;;
71671;SDS011;67659;45.554;11.812;2023-04-25T12:27:32;6.37;;;3.27;;
71671;SDS011;67659;45.554;11.812;2023-04-25T12:29:59;8.48;;;3.58;;
71671;SDS011;67659;45.554;11.812;2023-04-25T12:32:25;8.57;;;3.10;;
71671;SDS011;67659;45.554;11.812;2023-04-25T12:34:51;7.10;;;3.38;;
71671;SDS011;67659;45.554;11.812;2023-04-25T12:37:17;6.78;;;3.33;;
71671;SDS011;67659;45.554;11.812;2023-04-25T12:39:43;6.60;;;3.10;;
71671;SDS011;67659;45.554;11.812;2023-04-25T12:42:10;6.07;;;3.00;;
71671;SDS011;67659;45.554;11.812;2023-04-25T12:44:37;6.30;;;3.03;;
71671;SDS011;67659;45.554;11.812;2023-04-25T12:47:03;6.60;;;2.92;;
71671;SDS011;67659;45.554;11.812;2023-04-25T12:49:30;6.60;;;3.15;;
71671;SDS011;67659;45.554;11.812;2023-04-25T12:51:57;6.60;;;3.17;;
71671;SDS011;67659;45.554;11.812;2023-04-25T12:54:24;6.07;;;2.58;;
71671;SDS011;67659;45.554;11.812;2023-04-25T12:56:51;5.70;;;2.70;;
71671;SDS011;67659;45.554;11.812;2023-04-25T12:59:18;6.10;;;2.75;;
71671;SDS011;67659;45.554;11.812;2023-04-25T13:01:45;6.10;;;2.83;;
71671;SDS011;67659;45.554;11.812;2023-04-25T13:04:11;5.97;;;2.80;;
71671;SDS011;67659;45.554;11.812;2023-04-25T13:06:37;6.57;;;2.85;;
71671;SDS011;67659;45.554;11.812;2023-04-25T13:09:03;6.07;;;2.92;;
71671;SDS011;67659;45.554;11.812;2023-04-25T13:11:29;5.85;;;2.65;;
71671;SDS011;67659;45.554;11.812;2023-04-25T13:13:56;5.20;;;2.53;;
71671;SDS011;67659;45.554;11.812;2023-04-25T13:16:22;5.50;;;2.60;;
71671;SDS011;67659;45.554;11.812;2023-04-25T13:18:50;5.30;;;2.47;;
71671;SDS011;67659;45.554;11.812;2023-04-25T13:21:16;6.10;;;2.60;;
71671;SDS011;67659;45.554;11.812;2023-04-25T13:23:42;7.57;;;2.87;;
71671;SDS011;67659;45.554;11.812;2023-04-25T13:26:09;5.25;;;2.60;;
71671;SDS011;67659;45.554;11.812;2023-04-25T13:28:35;5.82;;;2.58;;
71671;SDS011;67659;45.554;11.812;2023-04-25T13:31:01;5.75;;;2.78;;
71671;SDS011;67659;45.554;11.812;2023-04-25T13:33:27;6.30;;;2.67;;
71671;SDS011;67659;45.554;11.812;2023-04-25T13:35:53;5.50;;;2.60;;
71671;SDS011;67659;45.554;11.812;2023-04-25T13:38:21;5.68;;;2.53;;
71671;SDS011;67659;45.554;11.812;2023-04-25T13:40:48;5.80;;;2.60;;
71671;SDS011;67659;45.554;11.812;2023-04-25T13:43:18;6.35;;;2.83;;
71671;SDS011;67659;45.554;11.812;2023-04-25T13:45:45;5.67;;;2.30;;
71671;SDS011;67659;45.554;11.812;2023-04-25T13:48:12;5.50;;;2.40;;
71671;SDS011;67659;45.554;11.812;2023-04-25T13:50:38;5.30;;;2.30;;
71671;SDS011;67659;45.554;11.812;2023-04-25T13:53:04;5.68;;;2.50;;
71671;SDS011;67659;45.554;11.812;2023-04-25T13:55:30;6.60;;;2.63;;
71671;SDS011;67659;45.554;11.812;2023-04-25T13:57:56;5.07;;;2.47;;
71671;SDS011;67659;45.554;11.812;2023-04-25T14:00:22;5.15;;;2.30;;
71671;SDS011;67659;45.554;11.812;2023-04-25T14:02:51;6.07;;;2.60;;
71671;SDS011;67659;45.554;11.812;2023-04-25T14:05:38;5.75;;;2.72;;
71671;SDS011;67659;45.554;11.812;2023-04-25T14:08:04;5.50;;;2.55;;
71671;SDS011;67659;45.554;11.812;2023-04-25T14:10:32;5.10;;;2.30;;
71671;SDS011;67659;45.554;11.812;2023-04-25T14:12:58;5.93;;;2.20;;
71671;SDS011;67659;45.554;11.812;2023-04-25T14:15:24;5.82;;;2.30;;
71671;SDS011;67659;45.554;11.812;2023-04-25T14:17:50;5.72;;;2.30;;
71671;SDS011;67659;45.554;11.812;2023-04-25T14:20:16;5.93;;;2.27;;
71671;SDS011;67659;45.554;11.812;2023-04-25T14:22:46;5.82;;;2.00;;
71671;SDS011;67659;45.554;11.812;2023-04-25T14:25:15;7.13;;;2.33;;
71671;SDS011;67659;45.554;11.812;2023-04-25T14:27:41;5.55;;;2.20;;
71671;SDS011;67659;45.554;11.812;2023-04-25T14:30:07;6.50;;;2.77;;
71671;SDS011;67659;45.554;11.812;2023-04-25T14:32:34;6.97;;;3.25;;
71671;SDS011;67659;45.554;11.812;2023-04-25T14:35:00;12.35;;;7.78;;
71671;SDS011;67659;45.554;11.812;2023-04-25T14:37:26;20.88;;;13.15;;
71671;SDS011;67659;45.554;11.812;2023-04-25T14:39:52;14.60;;;9.82;;
71671;SDS011;67659;45.554;11.812;2023-04-25T14:42:18;13.70;;;8.60;;
71671;SDS011;67659;45.554;11.812;2023-04-25T14:44:44;15.05;;;8.70;;
71671;SDS011;67659;45.554;11.812;2023-04-25T14:47:10;13.15;;;7.93;;
71671;SDS011;67659;45.554;11.812;2023-04-25T14:49:36;13.13;;;8.57;;
71671;SDS011;67659;45.554;11.812;2023-04-25T14:52:02;12.70;;;7.50;;